sensor_id;sensor_type;location;lat;lon;timestamp;pressure;altitude;pressure_sealevel;temperature;humidity
18813;BME280;9534;51.140;6.296;2023-04-29T00:02:22;100329.91;;;11.21;100.00
18813;BME280;9534;51.140;6.296;2023-04-29T00:06:25;100350.59;;;11.17;100.00
18813;BME280;9534;51.140;6.296;2023-04-29T00:10:29;100361.16;;;11.14;100.00
18813;BME280;9534;51.140;6.296;2023-04-29T00:14:33;100353.19;;;11.06;100.00
18813;BME280;9534;51.140;6.296;2023-04-29T00:18:36;100356.78;;;11.07;100.00
18813;BME280;9534;51.140;6.296;2023-04-29T00:22:39;100373.47;;;10.99;100.00
18813;BME280;9534;51.140;6.296;2023-04-29T00:26:42;100383.56;;;10.98;100.00
18813;BME280;9534;51.140;6.296;2023-04-29T00:30:46;100383.19;;;10.95;100.00
18813;BME280;9534;51.140;6.296;2023-04-29T00:34:49;100387.41;;;10.91;100.00
18813;BME280;9534;51.140;6.296;2023-04-29T00:38:52;100390.34;;;10.89;100.00
18813;BME280;9534;51.140;6.296;2023-04-29T00:42:55;100398.19;;;10.86;100.00
18813;BME280;9534;51.140;6.296;2023-04-29T00:47:02;100401.34;;;10.83;100.00
18813;BME280;9534;51.140;6.296;2023-04-29T00:51:05;100409.75;;;10.88;100.00
18813;BME280;9534;51.140;6.296;2023-04-29T00:55:09;100403.84;;;10.91;100.00
18813;BME280;9534;51.140;6.296;2023-04-29T00:59:13;100414.81;;;10.84;100.00
18813;BME280;9534;51.140;6.296;2023-04-29T01:03:19;100413.78;;;10.79;100.00
18813;BME280;9534;51.140;6.296;2023-04-29T01:07:23;100420.56;;;10.70;100.00
18813;BME280;9534;51.140;6.296;2023-04-29T01:11:29;100427.06;;;10.75;100.00
18813;BME280;9534;51.140;6.296;2023-04-29T01:15:38;100436.41;;;10.61;100.00
18813;BME280;9534;51.140;6.296;2023-04-29T01:19:49;100433.66;;;10.61;100.00
18813;BME280;9534;51.140;6.296;2023-04-29T01:23:55;100432.63;;;10.49;100.00
18813;BME280;9534;51.140;6.296;2023-04-29T01:28:05;100437.69;;;10.46;100.00
18813;BME280;9534;51.140;6.296;2023-04-29T01:32:12;100438.94;;;10.50;100.00
18813;BME280;9534;51.140;6.296;2023-04-29T01:36:21;100447.75;;;10.52;100.00
18813;BME280;9534;51.140;6.296;2023-04-29T01:40:29;100455.97;;;10.52;100.00
18813;BME280;9534;51.140;6.296;2023-04-29T01:44:46;100451.97;;;10.48;100.00
18813;BME280;9534;51.140;6.296;2023-04-29T01:48:54;100458.72;;;10.52;100.00
18813;BME280;9534;51.140;6.296;2023-04-29T01:52:57;100460.41;;;10.53;100.00
18813;BME280;9534;51.140;6.296;2023-04-29T01:57:02;100457.03;;;10.51;100.00
18813;BME280;9534;51.140;6.296;2023-04-29T02:01:22;100454.94;;;10.46;100.00
18813;BME280;9534;51.140;6.296;2023-04-29T02:05:26;100451.84;;;10.30;100.00
18813;BME280;9534;51.140;6.296;2023-04-29T02:09:33;100463.38;;;10.32;100.00
18813;BME280;9534;51.140;6.296;2023-04-29T02:13:43;100464.88;;;10.28;100.00
18813;BME280;9534;51.140;6.296;2023-04-29T02:17:47;100471.81;;;10.24;100.00
18813;BME280;9534;51.140;6.296;2023-04-29T02:21:53;100482.31;;;10.01;100.00
18813;BME280;9534;51.140;6.296;2023-04-29T02:25:58;100499.56;;;9.95;100.00
18813;BME280;9534;51.140;6.296;2023-04-29T02:30:04;100503.75;;;9.78;100.00
18813;BME280;9534;51.140;6.296;2023-04-29T02:34:08;100510.06;;;9.85;100.00
18813;BME280;9534;51.140;6.296;2023-04-29T02:38:11;100523.50;;;9.74;100.00
18813;BME280;9534;51.140;6.296;2023-04-29T02:42:13;100534.00;;;9.70;100.00
18813;BME280;9534;51.140;6.296;2023-04-29T02:46:18;100543.84;;;9.58;100.00
18813;BME280;9534;51.140;6.296;2023-04-29T02:50:39;100551.38;;;9.50;100.00
18813;BME280;9534;51.140;6.296;2023-04-29T02:55:01;100555.56;;;9.39;100.00
18813;BME280;9534;51.140;6.296;2023-04-29T02:59:07;100562.50;;;9.42;100.00
18813;BME280;9534;51.140;6.296;2023-04-29T03:03:11;100560.00;;;9.47;100.00
18813;BME280;9534;51.140;6.296;2023-04-29T03:07:15;100564.19;;;9.43;100.00
18813;BME280;9534;51.140;6.296;2023-04-29T03:11:18;100579.56;;;9.57;100.00
18813;BME280;9534;51.140;6.296;2023-04-29T03:15:22;100580.56;;;9.49;100.00
18813;BME280;9534;51.140;6.296;2023-04-29T03:19:26;100573.03;;;9.51;100.00
18813;BME280;9534;51.140;6.296;2023-04-29T03:23:30;100582.50;;;9.55;100.00
18813;BME280;9534;51.140;6.296;2023-04-29T03:27:34;100583.53;;;9.54;100.00
18813;BME280;9534;51.140;6.296;2023-04-29T03:31:38;100581.44;;;9.56;100.00
18813;BME280;9534;51.140;6.296;2023-04-29T03:35:42;100582.50;;;9.55;100.00
18813;BME280;9534;51.140;6.296;2023-04-29T03:40:18;100577.66;;;9.44;100.00
18813;BME280;9534;51.140;6.296;2023-04-29T03:44:23;100573.41;;;9.35;100.00
18813;BME280;9534;51.140;6.296;2023-04-29T03:48:28;100566.91;;;9.36;100.00
18813;BME280;9534;51.140;6.296;2023-04-29T03:52:33;100578.25;;;9.40;100.00
18813;BME280;9534;51.140;6.296;2023-04-29T03:56:42;100572.13;;;9.31;100.00
18813;BME280;9534;51.140;6.296;2023-04-29T04:00:46;100582.81;;;9.26;100.00
18813;BME280;9534;51.140;6.296;2023-04-29T04:04:55;100591.56;;;9.15;100.00
18813;BME280;9534;51.140;6.296;2023-04-29T04:09:01;100601.84;;;9.13;100.00
18813;BME280;9534;51.140;6.296;2023-04-29T04:13:06;100597.84;;;9.09;100.00
18813;BME280;9534;51.140;6.296;2023-04-29T04:17:09;100607.31;;;9.13;100.00
18813;BME280;9534;51.140;6.296;2023-04-29T04:21:13;100612.31;;;9.10;100.00
18813;BME280;9534;51.140;6.296;2023-04-29T04:25:22;100614.88;;;9.11;100.00
18813;BME280;9534;51.140;6.296;2023-04-29T04:29:29;100625.38;;;9.14;100.00
18813;BME280;9534;51.140;6.296;2023-04-29T04:33:40;100623.00;;;9.05;100.00
18813;BME280;9534;51.140;6.296;2023-04-29T04:37:43;100636.63;;;8.98;100.00
18813;BME280;9534;51.140;6.296;2023-04-29T04:41:48;100639.16;;;9.00;100.00
18813;BME280;9534;51.140;6.296;2023-04-29T04:45:53;100650.50;;;9.03;100.00
18813;BME280;9534;51.140;6.296;2023-04-29T04:49:56;100650.94;;;9.07;100.00
18813;BME280;9534;51.140;6.296;2023-04-29T04:53:59;100654.72;;;9.06;100.00
18813;BME280;9534;51.140;6.296;2023-04-29T04:58:05;100671.91;;;9.00;100.00
18813;BME280;9534;51.140;6.296;2023-04-29T05:02:09;100670.66;;;9.02;100.00
18813;BME280;9534;51.140;6.296;2023-04-29T05:06:13;100684.94;;;9.04;100.00
18813;BME280;9534;51.140;6.296;2023-04-29T05:10:19;100682.88;;;9.06;100.00
18813;BME280;9534;51.140;6.296;2023-04-29T05:14:30;100697.59;;;9.12;100.00
18813;BME280;9534;51.140;6.296;2023-04-29T05:18:33;100695.88;;;9.04;100.00
18813;BME280;9534;51.140;6.296;2023-04-29T05:22:37;100707.69;;;9.11;100.00
18813;BME280;9534;51.140;6.296;2023-04-29T05:26:41;100709.75;;;9.09;100.00
18813;BME280;9534;51.140;6.296;2023-04-29T05:30:49;100715.66;;;9.13;100.00
18813;BME280;9534;51.140;6.296;2023-04-29T05:34:52;100716.56;;;9.20;100.00
18813;BME280;9534;51.140;6.296;2023-04-29T05:38:56;100717.41;;;9.20;100.00
18813;BME280;9534;51.140;6.296;2023-04-29T05:43:00;100716.63;;;9.26;100.00
18813;BME280;9534;51.140;6.296;2023-04-29T05:47:04;100725.38;;;9.22;100.00
18813;BME280;9534;51.140;6.296;2023-04-29T05:51:08;100723.75;;;9.27;100.00
18813;BME280;9534;51.140;6.296;2023-04-29T05:55:12;100723.59;;;9.35;100.00
18813;BME280;9534;51.140;6.296;2023-04-29T05:59:17;100732.25;;;9.45;100.00
18813;BME280;9534;51.140;6.296;2023-04-29T06:03:28;100743.19;;;9.45;100.00
18813;BME280;9534;51.140;6.296;2023-04-29T06:07:52;100749.94;;;9.49;100.00
18813;BME280;9534;51.140;6.296;2023-04-29T06:12:21;100764.81;;;9.40;100.00
18813;BME280;9534;51.140;6.296;2023-04-29T06:16:24;100768.84;;;9.44;100.00
18813;BME280;9534;51.140;6.296;2023-04-29T06:20:30;100774.72;;;9.48;100.00
18813;BME280;9534;51.140;6.296;2023-04-29T06:24:37;100765.03;;;9.45;100.00
18813;BME280;9534;51.140;6.296;2023-04-29T06:28:43;100770.94;;;9.42;100.00
18813;BME280;9534;51.140;6.296;2023-04-29T06:32:48;100777.75;;;9.59;100.00
18813;BME280;9534;51.140;6.296;2023-04-29T06:36:52;100783.56;;;9.50;100.00
18813;BME280;9534;51.140;6.296;2023-04-29T06:41:15;100787.78;;;9.52;100.00
18813;BME280;9534;51.140;6.296;2023-04-29T06:45:35;100792.03;;;9.61;100.00
18813;BME280;9534;51.140;6.296;2023-04-29T06:49:50;100789.97;;;9.63;100.00
18813;BME280;9534;51.140;6.296;2023-04-29T06:53:57;100797.56;;;9.68;100.00
18813;BME280;9534;51.140;6.296;2023-04-29T06:58:00;100800.47;;;9.60;100.00
18813;BME280;9534;51.140;6.296;2023-04-29T07:02:05;100803.19;;;9.60;100.00
18813;BME280;9534;51.140;6.296;2023-04-29T07:06:08;100798.41;;;9.68;100.00
18813;BME280;9534;51.140;6.296;2023-04-29T07:10:12;100795.34;;;9.84;100.00
18813;BME280;9534;51.140;6.296;2023-04-29T07:14:15;100794.72;;;9.82;100.00
18813;BME280;9534;51.140;6.296;2023-04-29T07:18:18;100806.19;;;9.71;100.00
18813;BME280;9534;51.140;6.296;2023-04-29T07:22:21;100800.50;;;9.66;100.00
18813;BME280;9534;51.140;6.296;2023-04-29T07:26:25;100793.81;;;9.75;100.00
18813;BME280;9534;51.140;6.296;2023-04-29T07:30:28;100804.09;;;9.73;100.00
18813;BME280;9534;51.140;6.296;2023-04-29T07:34:31;100806.53;;;9.89;100.00
18813;BME280;9534;51.140;6.296;2023-04-29T07:38:35;100818.00;;;9.78;100.00
18813;BME280;9534;51.140;6.296;2023-04-29T07:42:39;100820.50;;;9.73;100.00
18813;BME280;9534;51.140;6.296;2023-04-29T07:46:42;100819.88;;;9.71;100.00
18813;BME280;9534;51.140;6.296;2023-04-29T07:50:45;100819.47;;;9.74;100.00
18813;BME280;9534;51.140;6.296;2023-04-29T07:54:51;100819.16;;;9.90;100.00
18813;BME280;9534;51.140;6.296;2023-04-29T07:58:58;100815.78;;;9.88;100.00
18813;BME280;9534;51.140;6.296;2023-04-29T08:03:01;100828.00;;;9.92;100.00
18813;BME280;9534;51.140;6.296;2023-04-29T08:07:04;100824.84;;;9.95;100.00
18813;BME280;9534;51.140;6.296;2023-04-29T08:11:14;100827.13;;;10.19;100.00
18813;BME280;9534;51.140;6.296;2023-04-29T08:15:18;100825.75;;;10.42;100.00
18813;BME280;9534;51.140;6.296;2023-04-29T08:19:22;100829.59;;;10.61;100.00
18813;BME280;9534;51.140;6.296;2023-04-29T08:23:25;100814.44;;;10.65;100.00
18813;BME280;9534;51.140;6.296;2023-04-29T08:27:28;100808.63;;;11.19;100.00
18813;BME280;9534;51.140;6.296;2023-04-29T08:31:32;100804.22;;;11.38;100.00
18813;BME280;9534;51.140;6.296;2023-04-29T08:35:35;100791.34;;;11.38;100.00
18813;BME280;9534;51.140;6.296;2023-04-29T08:39:39;100794.31;;;11.69;100.00
18813;BME280;9534;51.140;6.296;2023-04-29T08:43:44;100792.00;;;11.66;100.00
18813;BME280;9534;51.140;6.296;2023-04-29T08:47:51;100791.84;;;12.62;100.00
18813;BME280;9534;51.140;6.296;2023-04-29T08:51:55;100790.75;;;12.69;100.00
18813;BME280;9534;51.140;6.296;2023-04-29T08:56:07;100787.41;;;12.17;100.00
18813;BME280;9534;51.140;6.296;2023-04-29T09:00:11;100798.63;;;12.09;100.00
18813;BME280;9534;51.140;6.296;2023-04-29T09:04:20;100799.69;;;12.08;100.00
18813;BME280;9534;51.140;6.296;2023-04-29T09:08:31;100791.75;;;11.81;100.00
18813;BME280;9534;51.140;6.296;2023-04-29T09:12:35;100798.50;;;11.85;100.00
18813;BME280;9534;51.140;6.296;2023-04-29T09:16:38;100800.00;;;11.74;100.00
18813;BME280;9534;51.140;6.296;2023-04-29T09:20:43;100801.22;;;11.59;100.00
18813;BME280;9534;51.140;6.296;2023-04-29T09:24:46;100811.59;;;11.50;100.00
18813;BME280;9534;51.140;6.296;2023-04-29T09:29:04;100820.03;;;11.42;100.00
18813;BME280;9534;51.140;6.296;2023-04-29T09:33:08;100820.00;;;11.29;100.00
18813;BME280;9534;51.140;6.296;2023-04-29T09:37:22;100825.50;;;11.29;100.00
18813;BME280;9534;51.140;6.296;2023-04-29T09:41:25;100837.72;;;11.33;100.00
18813;BME280;9534;51.140;6.296;2023-04-29T09:45:32;100847.84;;;11.39;100.00
18813;BME280;9534;51.140;6.296;2023-04-29T09:49:36;100853.94;;;11.28;100.00
18813;BME280;9534;51.140;6.296;2023-04-29T09:53:43;100860.69;;;11.32;100.00
18813;BME280;9534;51.140;6.296;2023-04-29T09:57:46;100868.91;;;11.32;100.00
18813;BME280;9534;51.140;6.296;2023-04-29T10:01:52;100875.22;;;11.26;100.00
18813;BME280;9534;51.140;6.296;2023-04-29T10:05:56;100887.91;;;11.40;100.00
18813;BME280;9534;51.140;6.296;2023-04-29T10:10:02;100883.50;;;11.46;100.00
18813;BME280;9534;51.140;6.296;2023-04-29T10:14:06;100883.28;;;11.67;100.00
18813;BME280;9534;51.140;6.296;2023-04-29T10:18:19;100887.31;;;11.64;100.00
18813;BME280;9534;51.140;6.296;2023-04-29T10:22:26;100886.41;;;11.31;100.00
18813;BME280;9534;51.140;6.296;2023-04-29T10:26:34;100889.34;;;11.23;100.00
18813;BME280;9534;51.140;6.296;2023-04-29T10:30:42;100900.53;;;11.41;100.00
18813;BME280;9534;51.140;6.296;2023-04-29T10:34:46;100914.22;;;11.28;100.00
18813;BME280;9534;51.140;6.296;2023-04-29T10:38:50;100909.25;;;11.77;100.00
18813;BME280;9534;51.140;6.296;2023-04-29T10:42:59;100895.97;;;11.74;100.00
18813;BME280;9534;51.140;6.296;2023-04-29T10:47:18;100900.81;;;11.85;100.00
18813;BME280;9534;51.140;6.296;2023-04-29T10:51:32;100908.19;;;11.85;100.00
18813;BME280;9534;51.140;6.296;2023-04-29T10:55:36;100913.00;;;11.63;100.00
18813;BME280;9534;51.140;6.296;2023-04-29T10:59:46;100902.50;;;11.99;100.00
18813;BME280;9534;51.140;6.296;2023-04-29T11:03:51;100904.38;;;11.99;100.00
18813;BME280;9534;51.140;6.296;2023-04-29T11:08:08;100906.88;;;12.20;100.00
18813;BME280;9534;51.140;6.296;2023-04-29T11:12:13;100896.69;;;12.33;100.00
18813;BME280;9534;51.140;6.296;2023-04-29T11:16:25;100894.63;;;12.09;100.00
18813;BME280;9534;51.140;6.296;2023-04-29T11:20:30;100911.09;;;12.22;100.00
18813;BME280;9534;51.140;6.296;2023-04-29T11:24:33;100912.34;;;12.26;100.00
18813;BME280;9534;51.140;6.296;2023-04-29T11:28:37;100907.25;;;12.36;100.00
18813;BME280;9534;51.140;6.296;2023-04-29T11:32:42;100910.16;;;12.47;100.00
18813;BME280;9534;51.140;6.296;2023-04-29T11:36:45;100913.50;;;12.69;100.00
18813;BME280;9534;51.140;6.296;2023-04-29T11:40:49;100912.63;;;12.75;100.00
18813;BME280;9534;51.140;6.296;2023-04-29T11:44:53;100913.81;;;12.41;100.00
18813;BME280;9534;51.140;6.296;2023-04-29T11:48:58;100900.38;;;12.71;100.00
18813;BME280;9534;51.140;6.296;2023-04-29T11:53:02;100908.78;;;12.82;100.00
18813;BME280;9534;51.140;6.296;2023-04-29T11:57:05;100916.25;;;13.13;100.00
18813;BME280;9534;51.140;6.296;2023-04-29T12:01:08;100910.16;;;13.42;100.00
18813;BME280;9534;51.140;6.296;2023-04-29T12:05:13;100910.81;;;13.37;100.00
18813;BME280;9534;51.140;6.296;2023-04-29T12:09:18;100912.03;;;13.72;100.00
18813;BME280;9534;51.140;6.296;2023-04-29T12:13:22;100910.19;;;13.90;100.00
18813;BME280;9534;51.140;6.296;2023-04-29T12:17:25;100906.91;;;13.75;100.00
18813;BME280;9534;51.140;6.296;2023-04-29T12:21:30;100908.16;;;14.28;100.00
18813;BME280;9534;51.140;6.296;2023-04-29T12:25:34;100909.09;;;14.40;100.00
18813;BME280;9534;51.140;6.296;2023-04-29T12:29:37;100901.31;;;13.88;100.00
18813;BME280;9534;51.140;6.296;2023-04-29T12:33:42;100907.56;;;14.20;100.00
18813;BME280;9534;51.140;6.296;2023-04-29T12:37:49;100908.34;;;14.51;100.00
18813;BME280;9534;51.140;6.296;2023-04-29T12:41:53;100904.78;;;14.62;100.00
18813;BME280;9534;51.140;6.296;2023-04-29T12:45:59;100914.72;;;15.46;100.00
18813;BME280;9534;51.140;6.296;2023-04-29T12:50:02;100908.16;;;15.00;100.00
18813;BME280;9534;51.140;6.296;2023-04-29T12:54:07;100915.34;;;15.01;100.00
18813;BME280;9534;51.140;6.296;2023-04-29T12:58:12;100910.69;;;15.72;100.00
18813;BME280;9534;51.140;6.296;2023-04-29T13:02:15;100918.16;;;15.71;100.00
18813;BME280;9534;51.140;6.296;2023-04-29T13:06:21;100914.41;;;17.59;100.00
18813;BME280;9534;51.140;6.296;2023-04-29T13:10:25;100920.25;;;16.67;100.00
18813;BME280;9534;51.140;6.296;2023-04-29T13:14:31;100921.88;;;16.91;100.00
18813;BME280;9534;51.140;6.296;2023-04-29T13:18:34;100929.00;;;16.41;100.00
18813;BME280;9534;51.140;6.296;2023-04-29T13:22:37;100927.56;;;16.27;100.00
18813;BME280;9534;51.140;6.296;2023-04-29T13:26:42;100911.03;;;17.29;100.00
18813;BME280;9534;51.140;6.296;2023-04-29T13:30:46;100911.44;;;16.82;100.00
18813;BME280;9534;51.140;6.296;2023-04-29T13:34:49;100912.31;;;17.38;100.00
18813;BME280;9534;51.140;6.296;2023-04-29T13:38:52;100918.34;;;16.56;100.00
18813;BME280;9534;51.140;6.296;2023-04-29T13:42:57;100911.28;;;15.33;100.00
18813;BME280;9534;51.140;6.296;2023-04-29T13:47:10;100917.44;;;14.87;100.00
18813;BME280;9534;51.140;6.296;2023-04-29T13:51:13;100922.53;;;15.02;100.00
18813;BME280;9534;51.140;6.296;2023-04-29T13:55:36;100915.47;;;15.06;100.00
18813;BME280;9534;51.140;6.296;2023-04-29T14:00:00;100915.50;;;14.70;100.00
18813;BME280;9534;51.140;6.296;2023-04-29T14:04:23;100914.06;;;14.50;100.00
18813;BME280;9534;51.140;6.296;2023-04-29T14:08:27;100903.13;;;14.61;100.00
18813;BME280;9534;51.140;6.296;2023-04-29T14:12:31;100914.13;;;14.61;100.00
18813;BME280;9534;51.140;6.296;2023-04-29T14:16:35;100917.13;;;15.25;100.00
18813;BME280;9534;51.140;6.296;2023-04-29T14:20:38;100924.03;;;15.16;100.00
18813;BME280;9534;51.140;6.296;2023-04-29T14:24:41;100929.16;;;15.12;100.00
18813;BME280;9534;51.140;6.296;2023-04-29T14:28:44;100940.41;;;15.29;100.00
18813;BME280;9534;51.140;6.296;2023-04-29T14:32:49;100936.06;;;15.03;100.00
18813;BME280;9534;51.140;6.296;2023-04-29T14:36:52;100937.78;;;14.69;100.00
18813;BME280;9534;51.140;6.296;2023-04-29T14:40:55;100946.72;;;14.82;100.00
18813;BME280;9534;51.140;6.296;2023-04-29T14:44:58;100945.00;;;14.87;100.00
18813;BME280;9534;51.140;6.296;2023-04-29T14:49:02;100946.28;;;15.03;100.00
18813;BME280;9534;51.140;6.296;2023-04-29T14:53:09;100952.56;;;14.92;100.00
18813;BME280;9534;51.140;6.296;2023-04-29T14:57:13;100957.75;;;15.00;100.00
18813;BME280;9534;51.140;6.296;2023-04-29T15:01:16;100964.47;;;15.22;100.00
18813;BME280;9534;51.140;6.296;2023-04-29T15:05:20;100962.28;;;14.77;100.00
18813;BME280;9534;51.140;6.296;2023-04-29T15:09:23;100966.31;;;14.74;100.00
18813;BME280;9534;51.140;6.296;2023-04-29T15:13:27;100970.38;;;14.54;100.00
18813;BME280;9534;51.140;6.296;2023-04-29T15:17:32;100968.56;;;14.66;100.00
18813;BME280;9534;51.140;6.296;2023-04-29T15:21:37;100957.75;;;15.00;100.00
18813;BME280;9534;51.140;6.296;2023-04-29T15:25:40;100963.72;;;14.97;100.00
18813;BME280;9534;51.140;6.296;2023-04-29T15:29:44;100966.19;;;15.05;100.00
18813;BME280;9534;51.140;6.296;2023-04-29T15:33:47;100969.38;;;15.20;100.00
18813;BME280;9534;51.140;6.296;2023-04-29T15:37:52;100974.81;;;15.08;100.00
18813;BME280;9534;51.140;6.296;2023-04-29T15:41:56;100973.66;;;15.16;100.00
18813;BME280;9534;51.140;6.296;2023-04-29T15:45:59;100971.22;;;15.08;100.00
18813;BME280;9534;51.140;6.296;2023-04-29T15:50:03;100973.28;;;15.12;100.00
18813;BME280;9534;51.140;6.296;2023-04-29T15:54:07;100978.56;;;15.32;100.00
18813;BME280;9534;51.140;6.296;2023-04-29T15:58:10;100975.34;;;15.17;100.00
18813;BME280;9534;51.140;6.296;2023-04-29T16:02:13;100982.75;;;15.52;100.00
18813;BME280;9534;51.140;6.296;2023-04-29T16:06:17;100978.31;;;15.15;100.00
18813;BME280;9534;51.140;6.296;2023-04-29T16:10:21;100987.72;;;15.44;100.00
18813;BME280;9534;51.140;6.296;2023-04-29T16:14:24;100978.31;;;15.33;100.00
18813;BME280;9534;51.140;6.296;2023-04-29T16:18:27;100979.19;;;15.16;100.00
18813;BME280;9534;51.140;6.296;2023-04-29T16:22:31;100977.19;;;14.87;100.00
18813;BME280;9534;51.140;6.296;2023-04-29T16:26:35;100972.50;;;15.05;100.00
18813;BME280;9534;51.140;6.296;2023-04-29T16:30:40;100985.00;;;14.90;100.00
18813;BME280;9534;51.140;6.296;2023-04-29T16:34:44;100980.72;;;14.94;100.00
18813;BME280;9534;51.140;6.296;2023-04-29T16:38:47;100986.44;;;15.10;100.00
18813;BME280;9534;51.140;6.296;2023-04-29T16:42:51;100982.88;;;14.92;100.00
18813;BME280;9534;51.140;6.296;2023-04-29T16:46:55;100966.31;;;15.28;100.00
18813;BME280;9534;51.140;6.296;2023-04-29T16:50:58;100967.41;;;15.09;100.00
18813;BME280;9534;51.140;6.296;2023-04-29T16:55:02;100979.81;;;15.00;100.00
18813;BME280;9534;51.140;6.296;2023-04-29T16:59:07;100976.41;;;14.62;100.00
18813;BME280;9534;51.140;6.296;2023-04-29T17:03:11;100985.16;;;14.77;100.00
18813;BME280;9534;51.140;6.296;2023-04-29T17:07:15;100994.94;;;14.73;100.00
18813;BME280;9534;51.140;6.296;2023-04-29T17:11:20;100993.44;;;14.95;100.00
18813;BME280;9534;51.140;6.296;2023-04-29T17:15:24;100991.72;;;15.48;100.00
18813;BME280;9534;51.140;6.296;2023-04-29T17:19:27;100990.94;;;15.41;100.00
18813;BME280;9534;51.140;6.296;2023-04-29T17:23:30;100991.88;;;15.94;100.00
18813;BME280;9534;51.140;6.296;2023-04-29T17:27:33;100996.44;;;15.59;100.00
18813;BME280;9534;51.140;6.296;2023-04-29T17:31:38;100990.41;;;15.32;100.00
18813;BME280;9534;51.140;6.296;2023-04-29T17:35:55;100987.34;;;15.58;100.00
18813;BME280;9534;51.140;6.296;2023-04-29T17:40:02;100986.88;;;15.61;100.00
18813;BME280;9534;51.140;6.296;2023-04-29T17:44:05;100988.75;;;15.61;100.00
18813;BME280;9534;51.140;6.296;2023-04-29T17:48:11;100984.22;;;15.19;100.00
18813;BME280;9534;51.140;6.296;2023-04-29T17:52:15;100988.22;;;15.05;100.00
18813;BME280;9534;51.140;6.296;2023-04-29T17:56:22;100987.72;;;14.96;100.00
18813;BME280;9534;51.140;6.296;2023-04-29T18:00:24;100986.66;;;14.55;100.00
18813;BME280;9534;51.140;6.296;2023-04-29T18:04:29;100983.72;;;14.32;100.00
18813;BME280;9534;51.140;6.296;2023-04-29T18:08:32;100988.91;;;14.16;100.00
18813;BME280;9534;51.140;6.296;2023-04-29T18:12:35;100995.63;;;14.02;100.00
18813;BME280;9534;51.140;6.296;2023-04-29T18:16:38;100995.28;;;13.85;100.00
18813;BME280;9534;51.140;6.296;2023-04-29T18:20:43;100992.00;;;13.70;100.00
18813;BME280;9534;51.140;6.296;2023-04-29T18:24:46;101002.88;;;13.59;100.00
18813;BME280;9534;51.140;6.296;2023-04-29T18:28:49;101009.94;;;13.49;100.00
18813;BME280;9534;51.140;6.296;2023-04-29T18:32:53;101007.91;;;13.31;100.00
18813;BME280;9534;51.140;6.296;2023-04-29T18:36:57;101024.88;;;13.22;100.00
18813;BME280;9534;51.140;6.296;2023-04-29T18:41:00;101021.94;;;13.17;100.00
18813;BME280;9534;51.140;6.296;2023-04-29T18:45:03;101027.03;;;13.07;100.00
18813;BME280;9534;51.140;6.296;2023-04-29T18:49:06;101034.47;;;12.93;100.00
18813;BME280;9534;51.140;6.296;2023-04-29T18:53:13;101028.81;;;12.82;100.00
18813;BME280;9534;51.140;6.296;2023-04-29T18:57:16;101050.16;;;12.67;100.00
18813;BME280;9534;51.140;6.296;2023-04-29T19:01:20;101049.31;;;12.66;100.00
18813;BME280;9534;51.140;6.296;2023-04-29T19:05:23;101049.53;;;12.65;100.00
18813;BME280;9534;51.140;6.296;2023-04-29T19:09:27;101051.66;;;12.63;100.00
18813;BME280;9534;51.140;6.296;2023-04-29T19:13:32;101047.84;;;12.51;100.00
18813;BME280;9534;51.140;6.296;2023-04-29T19:17:35;101062.00;;;12.35;100.00
18813;BME280;9534;51.140;6.296;2023-04-29T19:21:38;101066.44;;;12.23;100.00
18813;BME280;9534;51.140;6.296;2023-04-29T19:25:42;101075.69;;;12.09;100.00
18813;BME280;9534;51.140;6.296;2023-04-29T19:29:45;101082.44;;;12.00;100.00
18813;BME280;9534;51.140;6.296;2023-04-29T19:33:48;101079.91;;;11.92;100.00
18813;BME280;9534;51.140;6.296;2023-04-29T19:37:52;101080.34;;;11.89;100.00
18813;BME280;9534;51.140;6.296;2023-04-29T19:41:57;101077.56;;;11.83;100.00
18813;BME280;9534;51.140;6.296;2023-04-29T19:46:00;101069.34;;;11.76;100.00
18813;BME280;9534;51.140;6.296;2023-04-29T19:50:03;101080.50;;;11.68;100.00
18813;BME280;9534;51.140;6.296;2023-04-29T19:54:06;101080.41;;;11.62;100.00
18813;BME280;9534;51.140;6.296;2023-04-29T19:58:11;101083.56;;;11.59;100.00
18813;BME280;9534;51.140;6.296;2023-04-29T20:02:14;101092.44;;;11.61;100.00
18813;BME280;9534;51.140;6.296;2023-04-29T20:06:17;101100.47;;;11.62;100.00
18813;BME280;9534;51.140;6.296;2023-04-29T20:10:21;101098.41;;;11.64;100.00
18813;BME280;9534;51.140;6.296;2023-04-29T20:14:25;101108.97;;;11.67;100.00
18813;BME280;9534;51.140;6.296;2023-04-29T20:18:28;101107.28;;;11.73;100.00
18813;BME280;9534;51.140;6.296;2023-04-29T20:22:32;101109.16;;;11.66;100.00
18813;BME280;9534;51.140;6.296;2023-04-29T20:26:35;101115.63;;;11.58;100.00
18813;BME280;9534;51.140;6.296;2023-04-29T20:30:39;101116.41;;;11.39;100.00
18813;BME280;9534;51.140;6.296;2023-04-29T20:34:42;101107.63;;;11.16;100.00
18813;BME280;9534;51.140;6.296;2023-04-29T20:38:45;101121.19;;;10.91;100.00
18813;BME280;9534;51.140;6.296;2023-04-29T20:42:49;101124.84;;;10.70;100.00
18813;BME280;9534;51.140;6.296;2023-04-29T20:46:54;101135.59;;;10.51;100.00
18813;BME280;9534;51.140;6.296;2023-04-29T20:50:57;101140.53;;;10.34;100.00
18813;BME280;9534;51.140;6.296;2023-04-29T20:55:00;101153.50;;;10.26;100.00
18813;BME280;9534;51.140;6.296;2023-04-29T20:59:04;101158.16;;;10.32;100.00
18813;BME280;9534;51.140;6.296;2023-04-29T21:03:08;101170.13;;;10.31;100.00
18813;BME280;9534;51.140;6.296;2023-04-29T21:07:11;101175.03;;;10.35;100.00
18813;BME280;9534;51.140;6.296;2023-04-29T21:11:14;101175.09;;;10.42;100.00
18813;BME280;9534;51.140;6.296;2023-04-29T21:15:17;101183.56;;;10.47;100.00
18813;BME280;9534;51.140;6.296;2023-04-29T21:19:21;101186.56;;;10.52;100.00
18813;BME280;9534;51.140;6.296;2023-04-29T21:23:24;101190.84;;;10.61;100.00
18813;BME280;9534;51.140;6.296;2023-04-29T21:27:27;101186.69;;;10.65;100.00